createdAt,value
2023-02-27T00:02:28.626Z,101483.22
2023-02-27T00:04:59.407Z,101489.09
2023-02-27T00:07:30.190Z,101486.19
2023-02-27T00:09:59.969Z,101492.03
2023-02-27T00:12:29.807Z,101480.91
2023-02-27T00:14:59.576Z,101483.59
2023-02-27T00:17:31.309Z,101484.44
2023-02-27T00:20:01.785Z,101482.56
2023-02-27T00:22:31.728Z,101500.25
2023-02-27T00:25:01.690Z,101498.84
2023-02-27T00:27:31.750Z,101497.63
2023-02-27T00:30:01.645Z,101499.31
2023-02-27T00:32:34.086Z,101509.91
2023-02-27T00:35:11.182Z,101508.25
2023-02-27T00:37:41.706Z,101508.91
2023-02-27T00:40:12.911Z,101522.38
2023-02-27T00:42:43.011Z,101518.66
2023-02-27T00:45:13.140Z,101516.78
2023-02-27T00:47:43.107Z,101517.25
2023-02-27T00:50:13.615Z,101523.69
2023-02-27T00:52:44.207Z,101525.34
2023-02-27T00:55:14.375Z,101520.59
2023-02-27T00:57:44.615Z,101526.19
2023-02-27T01:00:14.798Z,101526.38
2023-02-27T01:02:44.691Z,101529.25
2023-02-27T01:05:14.542Z,101537.16
2023-02-27T01:07:44.549Z,101536.13
2023-02-27T01:10:14.691Z,101537.63
2023-02-27T01:12:44.540Z,101534.75
2023-02-27T01:15:14.892Z,101530.00
2023-02-27T01:17:45.046Z,101534.38
2023-02-27T01:20:15.266Z,101535.66
2023-02-27T01:22:48.221Z,101550.84
2023-02-27T01:25:18.601Z,101553.16
2023-02-27T01:27:48.525Z,101549.44
2023-02-27T01:30:19.319Z,101545.72
2023-02-27T01:32:49.332Z,101559.00
2023-02-27T01:35:19.425Z,101552.41
2023-02-27T01:37:51.548Z,101552.03
2023-02-27T01:40:21.614Z,101546.63
2023-02-27T01:42:51.816Z,101565.16
2023-02-27T01:45:28.517Z,101563.28
2023-02-27T01:48:02.508Z,101560.41
2023-02-27T01:50:33.326Z,101562.94
2023-02-27T01:53:03.949Z,101560.06
2023-02-27T01:55:35.628Z,101558.03
2023-02-27T01:58:06.819Z,101571.31
2023-02-27T02:00:38.913Z,101563.88
2023-02-27T02:03:25.375Z,101561.00
2023-02-27T02:05:57.385Z,101546.47
2023-02-27T02:08:29.048Z,101557.91
2023-02-27T02:11:00.196Z,101559.41
2023-02-27T02:13:30.227Z,101559.84
2023-02-27T02:16:02.837Z,101555.13
2023-02-27T02:18:44.058Z,101554.09
2023-02-27T02:21:19.952Z,101557.44
2023-02-27T02:24:15.269Z,101558.09
2023-02-27T02:26:45.264Z,101498.81
2023-02-27T02:29:29.938Z,101563.72
2023-02-27T02:32:25.816Z,101561.69
2023-02-27T02:35:04.984Z,101558.59
2023-02-27T02:38:01.069Z,101569.22
2023-02-27T02:40:40.036Z,101574.25
2023-02-27T02:43:14.164Z,101530.16
2023-02-27T02:46:02.491Z,101564.72
2023-02-27T02:48:41.622Z,101568.91
2023-02-27T02:51:30.004Z,101565.66
2023-02-27T02:54:07.451Z,101562.75
2023-02-27T02:56:44.978Z,101564.22
2023-02-27T02:59:18.409Z,101559.47
2023-02-27T03:01:52.467Z,101563.66
2023-02-27T03:04:25.934Z,101544.41
2023-02-27T03:07:00.251Z,101514.91
2023-02-27T03:09:39.553Z,101555.47
2023-02-27T03:12:12.286Z,101554.25
2023-02-27T03:15:05.264Z,101555.75
2023-02-27T03:17:41.912Z,101551.00
2023-02-27T03:20:32.791Z,101533.53
2023-02-27T03:23:06.376Z,101529.44
2023-02-27T03:25:37.820Z,101527.38
2023-02-27T03:28:12.708Z,101521.56
2023-02-27T03:30:49.092Z,101513.25
2023-02-27T03:33:23.118Z,101517.44
2023-02-27T03:36:13.661Z,101518.91
2023-02-27T03:38:57.813Z,101521.22
2023-02-27T03:41:33.471Z,101514.59
2023-02-27T03:44:46.681Z,101513.38
2023-02-27T03:47:16.766Z,101512.97
2023-02-27T03:49:46.785Z,101509.88
2023-02-27T03:52:17.812Z,101504.28
2023-02-27T03:54:52.093Z,101491.22
2023-02-27T03:57:22.123Z,101485.41
2023-02-27T03:59:52.087Z,101482.31
2023-02-27T04:02:23.013Z,101481.13
2023-02-27T04:04:53.415Z,101469.91
2023-02-27T04:07:49.315Z,101464.31
2023-02-27T04:10:37.330Z,101461.22
2023-02-27T04:13:19.619Z,101458.31
2023-02-27T04:16:07.874Z,101457.06
2023-02-27T04:18:44.364Z,101456.69
2023-02-27T04:21:32.440Z,101448.34
2023-02-27T04:24:02.281Z,101443.59
2023-02-27T04:26:39.368Z,101445.06
2023-02-27T04:29:13.306Z,101435.50
2023-02-27T04:31:46.522Z,101436.16
2023-02-27T04:34:55.038Z,101418.88
2023-02-27T04:37:28.258Z,101424.72
2023-02-27T04:40:10.700Z,101415.56
2023-02-27T04:42:42.940Z,101411.63
2023-02-27T04:45:15.453Z,101408.69
2023-02-27T04:47:48.825Z,101408.53
2023-02-27T04:50:23.754Z,101398.34
2023-02-27T04:53:00.908Z,101395.41
2023-02-27T04:55:34.891Z,101389.81
2023-02-27T04:58:09.227Z,101376.94
2023-02-27T05:00:42.376Z,101372.34
2023-02-27T05:03:21.264Z,101360.28
2023-02-27T05:05:52.138Z,101351.13
2023-02-27T05:08:33.457Z,101352.78
2023-02-27T05:11:07.300Z,101348.81
2023-02-27T05:13:41.394Z,101341.34
2023-02-27T05:16:15.035Z,101324.91
2023-02-27T05:18:45.389Z,101322.84
2023-02-27T05:21:20.308Z,101315.38
2023-02-27T05:24:02.202Z,101322.25
2023-02-27T05:26:37.987Z,101320.19
2023-02-27T05:29:12.300Z,101309.97
2023-02-27T05:31:52.206Z,101300.59
2023-02-27T05:34:27.753Z,101303.94
2023-02-27T05:37:13.942Z,101299.16
2023-02-27T05:39:45.538Z,101285.19
2023-02-27T05:42:20.080Z,101275.00
2023-02-27T05:44:53.675Z,101278.31
2023-02-27T05:47:26.810Z,101277.06
2023-02-27T05:50:22.759Z,101278.53
2023-02-27T05:52:54.726Z,101270.00
2023-02-27T05:55:30.123Z,101261.69
2023-02-27T05:58:07.996Z,101247.91
2023-02-27T06:00:43.165Z,101248.34
2023-02-27T06:03:13.485Z,101237.28
2023-02-27T06:05:45.020Z,101234.16
2023-02-27T06:08:14.974Z,101223.97
2023-02-27T06:10:44.818Z,101227.31
2023-02-27T06:13:14.707Z,101227.94
2023-02-27T06:15:45.113Z,101217.50
2023-02-27T06:18:16.200Z,101209.16
2023-02-27T06:20:46.207Z,101201.66
2023-02-27T06:23:16.172Z,101202.94
2023-02-27T06:25:46.535Z,101191.03
2023-02-27T06:28:16.482Z,101184.16
2023-02-27T06:30:46.625Z,101177.47
2023-02-27T06:33:16.610Z,101176.22
2023-02-27T06:35:46.612Z,101176.66
2023-02-27T06:38:16.576Z,101170.16
2023-02-27T06:40:46.428Z,101162.44
2023-02-27T06:43:16.449Z,101164.13
2023-02-27T06:45:46.394Z,101155.31
2023-02-27T06:48:16.375Z,101150.72
2023-02-27T06:50:46.489Z,101146.56
2023-02-27T06:53:16.516Z,101141.53
2023-02-27T06:55:46.364Z,101132.16
2023-02-27T06:58:16.183Z,101136.09
2023-02-27T07:00:46.202Z,101135.66
2023-02-27T07:03:16.248Z,101127.91
2023-02-27T07:05:46.682Z,101120.19
2023-02-27T07:08:18.836Z,101119.75
2023-02-27T07:10:50.544Z,101121.00
2023-02-27T07:13:20.924Z,101113.50
2023-02-27T07:15:52.088Z,101108.22
2023-02-27T07:18:22.314Z,101102.16
2023-02-27T07:20:52.853Z,101106.09
2023-02-27T07:23:25.385Z,101102.72
2023-02-27T07:25:55.434Z,101100.63
2023-02-27T07:28:25.626Z,101102.91
2023-02-27T07:30:57.205Z,101095.97
2023-02-27T07:33:27.165Z,101102.63
2023-02-27T07:35:57.067Z,101088.00
2023-02-27T07:38:27.031Z,101076.50
2023-02-27T07:40:57.038Z,101070.88
2023-02-27T07:43:27.593Z,101071.00
2023-02-27T07:45:57.411Z,101074.13
2023-02-27T07:48:27.481Z,101078.06
2023-02-27T07:50:57.488Z,101076.78
2023-02-27T07:53:28.027Z,101065.50
2023-02-27T07:55:57.992Z,101055.00
2023-02-27T07:58:27.896Z,101057.06
2023-02-27T08:00:58.142Z,101059.56
2023-02-27T08:03:28.149Z,101061.59
2023-02-27T08:05:58.446Z,101061.13
2023-02-27T08:08:30.995Z,101055.25
2023-02-27T08:11:00.919Z,101056.47
2023-02-27T08:13:59.173Z,101048.13
2023-02-27T08:16:21.316Z,101046.81
2023-02-27T08:18:51.326Z,101057.25
2023-02-27T08:21:21.227Z,101057.63
2023-02-27T08:23:51.479Z,101058.22
2023-02-27T08:26:21.431Z,101059.63
2023-02-27T08:28:51.361Z,101055.88
2023-02-27T08:31:21.350Z,101054.59
2023-02-27T08:34:01.123Z,101059.56
2023-02-27T08:36:37.967Z,101064.75
2023-02-27T08:39:08.787Z,101063.50
2023-02-27T08:41:38.786Z,101065.78
2023-02-27T08:44:08.870Z,101066.63
2023-02-27T08:46:39.126Z,101069.09
2023-02-27T08:49:09.002Z,101067.00
2023-02-27T08:51:39.050Z,101071.16
2023-02-27T08:54:09.253Z,101072.78
2023-02-27T08:56:39.579Z,101074.47
2023-02-27T08:59:09.459Z,101075.06
2023-02-27T09:01:39.468Z,101076.72
2023-02-27T09:04:09.577Z,101088.16
2023-02-27T09:06:42.552Z,101081.91
2023-02-27T09:09:12.543Z,101092.56
2023-02-27T09:11:42.551Z,101091.50
2023-02-27T09:14:12.775Z,101094.81
2023-02-27T09:16:42.978Z,101093.75
2023-02-27T09:19:13.777Z,101099.78
2023-02-27T09:21:44.043Z,101096.47
2023-02-27T09:24:20.437Z,101106.88
2023-02-27T09:26:51.331Z,101099.34
2023-02-27T09:29:21.388Z,101109.13
2023-02-27T09:31:51.386Z,101110.81
2023-02-27T09:34:21.521Z,101108.09
2023-02-27T09:36:51.693Z,101110.00
2023-02-27T09:39:21.682Z,101111.44
2023-02-27T09:42:01.829Z,101109.75
2023-02-27T09:44:45.661Z,101118.50
2023-02-27T09:47:30.715Z,101115.78
2023-02-27T09:50:00.599Z,101121.22
2023-02-27T09:52:31.631Z,101122.88
2023-02-27T09:55:01.973Z,101118.50
2023-02-27T09:57:34.790Z,101118.50
2023-02-27T10:00:09.276Z,101120.63
2023-02-27T10:02:49.930Z,101124.41
2023-02-27T10:05:28.862Z,101126.03
2023-02-27T10:07:58.679Z,101121.69
2023-02-27T10:10:40.760Z,101128.16
2023-02-27T10:13:13.424Z,101125.69
2023-02-27T10:15:49.081Z,101128.59
2023-02-27T10:18:27.612Z,101135.72
2023-02-27T10:20:59.188Z,101143.97
2023-02-27T10:23:32.102Z,101114.06
2023-02-27T10:26:03.153Z,101145.53
2023-02-27T10:28:34.160Z,101143.56
2023-02-27T10:31:04.957Z,101149.03
2023-02-27T10:33:38.277Z,101152.00
2023-02-27T10:36:30.656Z,101148.91
2023-02-27T10:39:05.922Z,101152.06
2023-02-27T10:41:37.142Z,101158.34
2023-02-27T10:44:07.127Z,101161.50
2023-02-27T10:46:39.438Z,101160.03
2023-02-27T10:49:17.581Z,101162.59
2023-02-27T10:52:05.280Z,101171.78
2023-02-27T10:54:35.516Z,101173.44
2023-02-27T10:57:08.223Z,101163.88
2023-02-27T10:59:40.046Z,101164.91
2023-02-27T11:02:19.001Z,101169.28
2023-02-27T11:04:55.087Z,101173.47
2023-02-27T11:07:43.465Z,101174.31
2023-02-27T11:10:16.584Z,101181.03
2023-02-27T11:12:59.687Z,101180.41
2023-02-27T11:15:33.994Z,101183.53
2023-02-27T11:18:22.612Z,101185.13
2023-02-27T11:20:52.576Z,101182.94
2023-02-27T11:23:23.992Z,101175.34
2023-02-27T11:26:10.373Z,101175.31
2023-02-27T11:28:40.311Z,101181.97
2023-02-27T11:31:23.957Z,101183.22
2023-02-27T11:33:58.496Z,101186.13
2023-02-27T11:36:43.129Z,101193.19
2023-02-27T11:39:26.113Z,101183.97
2023-02-27T11:41:57.752Z,101189.41
2023-02-27T11:44:49.966Z,101185.66
2023-02-27T11:47:29.146Z,101185.66
2023-02-27T11:50:12.194Z,101194.00
2023-02-27T11:52:49.775Z,101194.84
2023-02-27T11:55:23.184Z,101201.31
2023-02-27T11:57:57.910Z,101197.78
2023-02-27T12:00:28.001Z,101213.25
2023-02-27T12:03:16.497Z,101216.16
2023-02-27T12:05:49.720Z,101218.25
2023-02-27T12:08:26.006Z,101219.13
2023-02-27T12:11:12.415Z,101220.38
2023-02-27T12:13:47.179Z,101219.53
2023-02-27T12:16:30.426Z,101224.38
2023-02-27T12:19:19.824Z,101230.81
2023-02-27T12:21:55.599Z,101224.22
2023-02-27T12:24:27.612Z,101231.84
2023-02-27T12:27:10.640Z,101234.81
2023-02-27T12:29:43.638Z,101233.81
2023-02-27T12:32:13.882Z,101229.84
2023-02-27T12:34:48.093Z,101232.38
2023-02-27T12:37:39.079Z,101240.31
2023-02-27T12:40:10.755Z,101235.94
2023-02-27T12:42:43.674Z,101245.31
2023-02-27T12:45:26.014Z,101248.66
2023-02-27T12:48:08.395Z,101260.19
2023-02-27T12:50:57.118Z,101260.41
2023-02-27T12:53:39.012Z,101264.56
2023-02-27T12:56:16.647Z,101273.53
2023-02-27T12:58:53.177Z,101277.03
2023-02-27T13:01:35.065Z,101281.00
2023-02-27T13:04:31.323Z,101273.66
2023-02-27T13:07:10.335Z,101272.22
2023-02-27T13:09:49.287Z,101282.38
2023-02-27T13:12:19.298Z,101282.78
2023-02-27T13:14:52.187Z,101288.38
2023-02-27T13:17:30.600Z,101315.19
2023-02-27T13:20:07.028Z,101301.03
2023-02-27T13:22:42.649Z,101307.25
2023-02-27T13:25:15.761Z,101305.13
2023-02-27T13:27:49.424Z,101309.06
2023-02-27T13:30:38.464Z,101315.28
2023-02-27T13:33:27.004Z,101315.44
2023-02-27T13:36:05.498Z,101318.34
2023-02-27T13:38:44.427Z,101317.53
2023-02-27T13:41:30.515Z,101311.66
2023-02-27T13:44:02.765Z,101312.47
2023-02-27T13:46:33.507Z,101317.44
2023-02-27T13:49:06.644Z,101281.09
2023-02-27T13:51:37.650Z,101315.75
2023-02-27T13:54:33.864Z,101314.50
2023-02-27T13:57:11.128Z,101319.47
2023-02-27T13:59:45.766Z,101319.88
2023-02-27T14:02:16.458Z,101321.50
2023-02-27T14:04:53.465Z,101328.97
2023-02-27T14:07:34.182Z,101325.63
2023-02-27T14:10:11.464Z,101323.47
2023-02-27T14:12:46.227Z,101334.88
2023-02-27T14:15:19.823Z,101337.56
2023-02-27T14:17:54.568Z,101334.22
2023-02-27T14:20:31.855Z,101335.69
2023-02-27T14:23:10.908Z,101335.53
2023-02-27T14:25:44.451Z,101338.84
2023-02-27T14:28:24.866Z,101338.84
2023-02-27T14:30:59.446Z,101349.63
2023-02-27T14:33:40.548Z,101352.34
2023-02-27T14:36:17.669Z,101351.31
2023-02-27T14:38:48.532Z,101353.16
2023-02-27T14:41:33.344Z,101348.56
2023-02-27T14:44:03.790Z,101354.19
2023-02-27T14:46:39.009Z,101351.00
2023-02-27T14:49:18.404Z,101351.63
2023-02-27T14:51:48.426Z,101352.00
2023-02-27T14:54:20.231Z,101342.03
2023-02-27T14:57:00.846Z,101344.09
2023-02-27T14:59:32.926Z,101345.31
2023-02-27T15:02:05.651Z,101349.44
2023-02-27T15:04:35.685Z,101354.84
2023-02-27T15:07:05.663Z,101354.44
2023-02-27T15:09:37.482Z,101347.00
2023-02-27T15:12:07.685Z,101356.91
2023-02-27T15:14:40.498Z,101354.31
2023-02-27T15:17:25.557Z,101357.03
2023-02-27T15:19:57.517Z,101363.06
2023-02-27T15:22:39.091Z,101359.72
2023-02-27T15:25:28.720Z,101354.28
2023-02-27T15:28:02.144Z,101350.09
2023-02-27T15:30:41.572Z,101348.41
2023-02-27T15:33:17.221Z,101336.53
2023-02-27T15:35:47.816Z,101338.59
2023-02-27T15:38:31.751Z,101340.66
2023-02-27T15:41:03.141Z,101327.50
2023-02-27T15:43:33.671Z,101330.41
2023-02-27T15:46:04.801Z,101330.41
2023-02-27T15:48:35.064Z,101327.91
2023-02-27T15:51:06.095Z,101329.78
2023-02-27T15:53:37.625Z,101324.72
2023-02-27T15:56:10.980Z,101324.13
2023-02-27T15:58:48.402Z,101319.53
2023-02-27T16:01:23.015Z,101320.75
2023-02-27T16:03:54.789Z,101318.25
2023-02-27T16:06:28.497Z,101320.75
2023-02-27T16:09:03.611Z,101318.91
2023-02-27T16:11:37.517Z,101305.84
2023-02-27T16:14:09.837Z,101298.00
2023-02-27T16:16:40.336Z,101308.41
2023-02-27T16:19:26.013Z,101307.22
2023-02-27T16:22:14.368Z,101303.88
2023-02-27T16:24:45.500Z,101304.75
2023-02-27T16:27:25.559Z,101306.41
2023-02-27T16:29:57.731Z,101304.75
2023-02-27T16:32:32.158Z,101292.22
2023-02-27T16:35:04.040Z,101297.84
2023-02-27T16:37:41.743Z,101295.97
2023-02-27T16:40:23.786Z,101301.75
2023-02-27T16:42:54.571Z,101296.75
2023-02-27T16:45:25.923Z,101296.09
2023-02-27T16:47:57.499Z,101299.63
2023-02-27T16:50:30.821Z,101299.19
2023-02-27T16:53:01.089Z,101299.56
2023-02-27T16:55:33.328Z,101298.28
2023-02-27T16:58:03.625Z,101298.28
2023-02-27T17:00:35.562Z,101297.00
2023-02-27T17:03:06.607Z,101295.34
2023-02-27T17:05:37.098Z,101293.66
2023-02-27T17:08:07.348Z,101293.84
2023-02-27T17:10:46.091Z,101284.28
2023-02-27T17:13:16.182Z,101288.00
2023-02-27T17:15:46.350Z,101273.63
2023-02-27T17:18:16.413Z,101273.22
2023-02-27T17:20:46.749Z,101278.63
2023-02-27T17:23:20.581Z,101275.28
2023-02-27T17:25:56.080Z,101265.53
2023-02-27T17:28:27.177Z,101276.69
2023-02-27T17:31:16.673Z,101234.06
2023-02-27T17:33:46.684Z,101276.88
2023-02-27T17:36:16.853Z,101267.31
2023-02-27T17:38:47.454Z,101267.31
2023-02-27T17:41:20.341Z,101262.13
2023-02-27T17:43:55.257Z,101260.66
2023-02-27T17:46:27.247Z,101257.28
2023-02-27T17:49:01.863Z,101253.94
2023-02-27T17:51:32.693Z,101264.72
2023-02-27T17:54:03.461Z,101256.03
2023-02-27T17:56:36.297Z,101248.09
2023-02-27T17:59:07.020Z,101248.94
2023-02-27T18:01:40.058Z,101248.28
2023-02-27T18:04:12.673Z,101251.38
2023-02-27T18:06:42.769Z,101243.47
2023-02-27T18:09:13.154Z,101236.59
2023-02-27T18:11:43.627Z,101232.19
2023-02-27T18:14:13.785Z,101237.97
2023-02-27T18:16:44.259Z,101235.03
2023-02-27T18:19:15.473Z,101232.34
2023-02-27T18:21:48.526Z,101239.56
2023-02-27T18:24:18.782Z,101244.97
2023-02-27T18:26:49.436Z,101241.44
2023-02-27T18:29:23.356Z,101240.78
2023-02-27T18:31:55.375Z,101234.38
2023-02-27T18:34:25.833Z,101236.44
2023-02-27T18:36:58.071Z,101229.38
2023-02-27T18:39:31.336Z,101234.13
2023-02-27T18:42:01.522Z,101229.09
2023-02-27T18:44:31.904Z,101236.53
2023-02-27T18:47:02.186Z,101223.28
2023-02-27T18:49:32.148Z,101217.03
2023-02-27T18:52:02.314Z,101226.13
2023-02-27T18:54:32.324Z,101219.09
2023-02-27T18:57:02.442Z,101215.91
2023-02-27T18:59:32.476Z,101212.22
2023-02-27T19:02:02.667Z,101215.75
2023-02-27T19:04:35.775Z,101215.09
2023-02-27T19:07:05.800Z,101217.78
2023-02-27T19:09:35.978Z,101212.78
2023-02-27T19:12:06.207Z,101215.09
2023-02-27T19:14:36.241Z,101213.59
2023-02-27T19:17:06.381Z,101207.78
2023-02-27T19:19:36.678Z,101209.44
2023-02-27T19:22:06.706Z,101205.25
2023-02-27T19:24:36.732Z,101197.38
2023-02-27T19:27:06.774Z,101186.97
2023-02-27T19:29:36.792Z,101194.03
2023-02-27T19:32:09.023Z,101186.78
2023-02-27T19:34:39.080Z,101178.25
2023-02-27T19:37:10.022Z,101189.03
2023-02-27T19:39:40.090Z,101186.31
2023-02-27T19:42:10.332Z,101185.28
2023-02-27T19:44:41.870Z,101182.59
2023-02-27T19:47:12.120Z,101185.28
2023-02-27T19:49:42.071Z,101189.03
2023-02-27T19:52:12.013Z,101190.69
2023-02-27T19:54:42.509Z,101201.66
2023-02-27T19:57:13.396Z,101189.41
2023-02-27T19:59:43.535Z,101195.81
2023-02-27T20:02:13.988Z,101197.66
2023-02-27T20:04:46.028Z,101197.66
2023-02-27T20:07:16.305Z,101205.94
2023-02-27T20:09:46.518Z,101215.88
2023-02-27T20:12:16.616Z,101195.16
2023-02-27T20:14:46.633Z,101200.09
2023-02-27T20:17:17.267Z,101188.47
2023-02-27T20:19:47.202Z,101193.84
2023-02-27T20:22:17.310Z,101198.41
2023-02-27T20:24:47.699Z,101201.31
2023-02-27T20:27:17.724Z,101200.66
2023-02-27T20:29:49.834Z,101193.41
2023-02-27T20:32:20.326Z,101205.00
2023-02-27T20:34:51.128Z,101207.09
2023-02-27T20:37:21.050Z,101202.22
2023-02-27T20:39:51.624Z,101202.00
2023-02-27T20:42:21.638Z,101198.69
2023-02-27T20:44:51.641Z,101200.72
2023-02-27T20:47:22.203Z,101195.34
2023-02-27T20:49:52.532Z,101206.28
2023-02-27T20:52:23.017Z,101201.09
2023-02-27T20:54:53.093Z,101207.69
2023-02-27T20:57:23.256Z,101196.09
2023-02-27T20:59:53.253Z,101198.97
2023-02-27T21:02:23.186Z,101183.00
2023-02-27T21:04:55.299Z,101185.69
2023-02-27T21:07:25.890Z,101186.06
2023-02-27T21:09:55.961Z,101197.69
2023-02-27T21:12:26.009Z,101158.03
2023-02-27T21:14:57.211Z,101185.41
2023-02-27T21:17:27.700Z,101179.28
2023-02-27T21:19:57.804Z,101176.50
2023-02-27T21:22:27.704Z,101179.28
2023-02-27T21:24:58.441Z,101179.38
2023-02-27T21:27:28.585Z,101181.97
2023-02-27T21:29:59.220Z,101179.06
2023-02-27T21:32:29.319Z,101175.75
2023-02-27T21:34:59.371Z,101180.66
2023-02-27T21:37:29.467Z,101174.84
2023-02-27T21:40:01.800Z,101179.78
2023-02-27T21:42:32.527Z,101180.16
2023-02-27T21:45:02.590Z,101185.69
2023-02-27T21:47:33.160Z,101189.56
2023-02-27T21:50:15.180Z,101187.91
2023-02-27T21:52:46.057Z,101189.97
2023-02-27T21:55:16.077Z,101199.06
2023-02-27T21:57:46.020Z,101198.22
2023-02-27T22:00:17.485Z,101202.31
2023-02-27T22:02:47.512Z,101205.19
2023-02-27T22:05:17.629Z,101203.88
2023-02-27T22:07:47.614Z,101213.00
2023-02-27T22:10:17.678Z,101215.03
2023-02-27T22:12:48.375Z,101214.19
2023-02-27T22:15:18.452Z,101221.69
2023-02-27T22:17:51.761Z,101215.41
2023-02-27T22:20:22.212Z,101215.69
2023-02-27T22:22:52.436Z,101226.56
2023-02-27T22:25:22.600Z,101220.44
2023-02-27T22:27:52.618Z,101197.84
2023-02-27T22:30:23.212Z,101231.47
2023-02-27T22:32:53.420Z,101242.81
2023-02-27T22:35:23.838Z,101240.69
2023-02-27T22:37:54.382Z,101244.78
2023-02-27T22:40:24.408Z,101246.13
2023-02-27T22:42:54.569Z,101244.84
2023-02-27T22:45:25.307Z,101259.69
2023-02-27T22:47:55.391Z,101257.38
2023-02-27T22:50:25.370Z,101252.34
2023-02-27T22:52:55.345Z,101263.13
2023-02-27T22:55:25.279Z,101273.16
2023-02-27T22:57:55.616Z,101276.13
2023-02-27T23:00:25.579Z,101269.16
2023-02-27T23:02:55.739Z,101271.03
2023-02-27T23:05:26.084Z,101273.00
2023-02-27T23:07:56.020Z,101292.13
2023-02-27T23:10:26.052Z,101287.66
2023-02-27T23:12:56.330Z,101289.81
2023-02-27T23:15:26.477Z,101293.59
2023-02-27T23:17:58.581Z,101299.28
2023-02-27T23:20:28.777Z,101306.59
2023-02-27T23:22:58.808Z,101311.22
2023-02-27T23:25:28.756Z,101315.25
2023-02-27T23:27:58.685Z,101319.22
2023-02-27T23:30:29.870Z,101326.91
2023-02-27T23:33:00.911Z,101329.38
2023-02-27T23:35:31.665Z,101329.81
2023-02-27T23:38:02.075Z,101323.66
2023-02-27T23:40:32.346Z,101338.25
2023-02-27T23:43:20.780Z,101330.25
2023-02-27T23:45:51.464Z,101342.97
2023-02-27T23:48:23.377Z,101342.59
2023-02-27T23:50:53.512Z,101343.88
2023-02-27T23:53:24.064Z,101353.91
2023-02-27T23:55:54.194Z,101355.19
2023-02-27T23:58:24.486Z,101355.66
